Terminal Aerodrome Forecast
Issued by NWS

Home | Current Version | Previous Version | Text Only | Print | Product List | Glossary On
Versions: 1 2 3 4 5 6 7 8 9 10 11 12 13 14 15
000
FTUS41 KILN 281925 AAA
TAFLCK
TAF AMD
KLCK 281925Z 2819/2918 22012KT P6SM BKN200
     FM290200 16006KT P6SM FEW250
     FM290800 18005KT P6SM FEW250 WS020/23035KT
     FM291300 20010KT P6SM FEW200
     FM291500 22014G24KT P6SM FEW050 SCT140=

USA.gov is the U.S. government's official web portal to all federal, state and local government web resources and services.